メインページ
METAR-TAF:

METAR-TAF

空港 :

カラカス, ベネズエラ

シモン・ボリバル国際空港

緯度: 10-36N, 経度: 066-59W, 海抜: 43m

現時点の気象観測

当レポートは19分前の19:00(UTC)に作成
北東の風 5kt
気温 28°C
湿度 74%
気圧 1013 hPa
視程10km以上
高度1600ftの雲は散在している

METAR: SVMI 251900Z 05005KT 9999 SCT016 28/23 Q1013

時間: 15:19 (19:19 UTC)

予報

当レポートは3時間19分前の16:00(UTC)に作成
予報は25日の 18時(UTC)から 26日の 18時(UTC)まで有効
の風 10kt
視程10km以上
高度1300ftの雲はほとんどない
25日の 18時(UTC)から 25日の 22時(UTC)まで徐々に
の風 12kt

TAF: SVMI 251600Z 2518/2618 09010KT 9999 FEW013 TX33/18Z TN24/09Z BECMG 2518/2522 08012KT

4,000以上の空港の気象観測と天気予報(METAR報とTAF報)

利用可能な観測所は地図上に黄色い丸と赤い丸で示す。

丸の上にカーソルを重ねると観測所名を参照できる。

次にクリックすると気象観測と天気予報を参照できる。

マップの切り替え:黒色「×」印の緑ボタンをクリックして拡大、「-」印の緑ボタンをクリックして縮小、緑色の三角印をクリックして隣りの地図に切り替え


METAR-TAF: